EHRD/RTM METAR and TAF weather

Enter ICAO airport designator
Station Type Date Time Source
EHRD METAR 2022/12/08 13:25 UTC NOAA

EHRD 081325Z AUTO 21009KT 9999 -RA FEW009 SCT021 BKN026 04/03 Q1006 TEMPO 30010KT 5000 -SHRASN BKN010 SCT020CB


Station Type Date Time Source
EHRD Decoded METAR 2022/12/08 13:25 UTC NOAA

Rotterdam Airport Zestienhoven, Netherlands (EHRD) 51-57N 004-27E -4M
Dec 08, 2022 - 08:25 AM EST / 2022.12.08 1325 UTC
Wind: from the SSW (210 degrees) at 10 MPH (9 KT):0
Visibility: greater than 7 mile(s):0
Sky conditions: mostly cloudy
Weather: light rain; Cumulonimbus clouds observed
Temperature: 39 F (4 C)
Dew Point: 37 F (3 C)
Relative Humidity: 93%
Pressure (altimeter): 29.71 in. Hg (1006 hPa)
ob: EHRD 081325Z AUTO 21009KT 9999 -RA FEW009 SCT021 BKN026 04/03 Q1006 TEMPO 30010KT 5000 -SHRASN BKN010 SCT020CB
cycle: 13

Station Type Date Time Source
EHRD TAF 2022/12/08 12:27 UTC NOAA

TAF TAF EHRD 081117Z 0812/0918 23008KT 9999 SCT030 PROB30
TEMPO 0812/0818 32010KT 7000 -SHRA FEW020CB BKN025
BECMG 0818/0821 18005KT 4000 MIFG BR
BECMG 0821/0824 1400 BCFG
BECMG 0900/0903 0700 FG FZFG PROB30 0903/0911 0400 BKN001
BECMG 0908/0911 1800 BR SCT002 BKN003
BECMG 0911/0914 6000 NSW SCT005 PROB30 0912/0918 4000 BR BKN005

Example: see airport list